TimeMDT,TemperatureF,Dew PointF,Humidity,Sea Level PressureIn,VisibilityMPH,Wind Direction,Wind SpeedMPH,Gust SpeedMPH,PrecipitationIn,Events,Conditions,WindDirDegrees,DateUTC
12:52 AM,64.9,24.1,21,29.70,10.0,South,12.7,-,N/A,,Clear,180,2013-05-16 06:52:00
1:52 AM,64.0,25.0,23,29.70,10.0,South,12.7,-,N/A,,Clear,180,2013-05-16 07:52:00
2:52 AM,61.0,26.1,26,29.72,10.0,SW,5.8,-,N/A,,Clear,230,2013-05-16 08:52:00
3:52 AM,61.0,27.0,27,29.71,10.0,South,12.7,-,N/A,,Clear,190,2013-05-16 09:52:00
4:52 AM,59.0,28.0,31,29.72,10.0,SSW,11.5,-,N/A,,Clear,200,2013-05-16 10:52:00
5:52 AM,57.0,28.0,33,29.73,10.0,SSW,10.4,-,N/A,,Clear,200,2013-05-16 11:52:00
6:52 AM,55.0,26.1,33,29.75,10.0,SSW,10.4,-,N/A,,Clear,200,2013-05-16 12:52:00
7:52 AM,64.0,26.1,24,29.74,10.0,SSW,15.0,-,N/A,,Clear,210,2013-05-16 13:52:00
8:52 AM,68.0,32.0,26,29.76,10.0,South,12.7,-,N/A,,Clear,190,2013-05-16 14:52:00
9:52 AM,73.0,25.0,17,29.73,10.0,South,13.8,-,N/A,,Clear,180,2013-05-16 15:52:00
10:52 AM,75.9,21.9,13,29.72,10.0,SSW,21.9,32.2,N/A,,Clear,210,2013-05-16 16:52:00
11:52 AM,75.9,23.0,14,29.72,10.0,SSW,23.0,28.8,N/A,,Clear,200,2013-05-16 17:52:00
12:52 PM,80.1,21.9,12,29.68,10.0,South,19.6,25.3,N/A,,Clear,190,2013-05-16 18:52:00
1:52 PM,80.1,19.0,10,29.67,10.0,South,21.9,-,N/A,,Clear,190,2013-05-16 19:52:00
2:52 PM,82.0,19.9,10,29.65,10.0,SSW,24.2,34.5,N/A,,Clear,200,2013-05-16 20:52:00
3:52 PM,81.0,14.0,8,29.63,10.0,SSW,24.2,32.2,N/A,,Clear,210,2013-05-16 21:52:00
4:52 PM,81.0,7.0,6,29.61,10.0,SW,29.9,40.3,N/A,,Clear,220,2013-05-16 22:52:00
5:52 PM,79.0,12.0,8,29.62,10.0,SW,27.6,34.5,N/A,,Clear,220,2013-05-16 23:52:00
6:52 PM,77.0,10.9,8,29.63,10.0,SW,27.6,36.8,N/A,,Clear,220,2013-05-17 00:52:00
7:52 PM,73.9,10.0,9,29.62,10.0,SW,21.9,31.1,N/A,,Clear,220,2013-05-17 01:52:00
8:52 PM,70.0,17.1,13,29.63,10.0,SSW,11.5,-,N/A,,Clear,210,2013-05-17 02:52:00
9:52 PM,62.1,27.0,26,29.64,10.0,SSW,9.2,-,N/A,,Clear,200,2013-05-17 03:52:00
10:52 PM,63.0,21.9,21,29.64,10.0,South,10.4,-,N/A,,Clear,190,2013-05-17 04:52:00
11:52 PM,63.0,19.0,18,29.64,10.0,South,11.5,-,N/A,,Clear,180,2013-05-17 05:52:00